Time;durP1;ratioP1;P1;durP2;ratioP2;P2;SDS_P1;SDS_P2;PMS_P1;PMS_P2;Temp;Humidity;BMP_temperature;BMP_pressure;BME280_temperature;BME280_humidity;BME280_pressure;Samples;Min_cycle;Max_cycle;Signal;HPM_P1;HPM_P2
2023/12/26 00:00:13;;;;;;;0.63;0.28;;;;;;;;;;4983933;28;20065;-65
2023/12/26 00:02:39;;;;;;;0.93;0.30;;;;;;;;;;4966979;28;20057;-64
2023/12/26 00:05:08;;;;;;;0.45;0.32;;;;;;;;;;4997305;28;20064;-64
2023/12/26 00:07:35;;;;;;;0.30;0.30;;;;;;;;;;4999519;28;20057;-65
2023/12/26 00:10:02;;;;;;;0.30;0.30;;;;;;;;;;4986421;28;20050;-65
2023/12/26 00:12:29;;;;;;;0.25;0.25;;;;;;;;;;4973547;28;20065;-65
2023/12/26 00:14:55;;;;;;;0.77;0.20;;;;;;;;;;5009739;28;20064;-65
2023/12/26 00:17:22;;;;;;;1.52;0.40;;;;;;;;;;4999684;28;20042;-65
2023/12/26 00:19:49;;;;;;;0.28;0.28;;;;;;;;;;4995789;28;20054;-67
2023/12/26 00:22:18;;;;;;;0.15;0.15;;;;;;;;;;4984020;28;20057;-64
2023/12/26 00:24:46;;;;;;;0.28;0.28;;;;;;;;;;4986742;28;20061;-66
2023/12/26 00:27:13;;;;;;;0.40;0.40;;;;;;;;;;5012356;28;20050;-65
2023/12/26 00:29:39;;;;;;;2.55;0.30;;;;;;;;;;4996100;28;20057;-65
2023/12/26 00:32:07;;;;;;;1.02;0.30;;;;;;;;;;4992154;28;20066;-65
2023/12/26 00:34:33;;;;;;;0.25;0.22;;;;;;;;;;4971277;28;20283;-65
2023/12/26 00:37:00;;;;;;;1.77;0.30;;;;;;;;;;4979620;28;20062;-65
2023/12/26 00:39:28;;;;;;;0.25;0.20;;;;;;;;;;4982482;28;20054;-65
2023/12/26 00:41:55;;;;;;;0.20;0.20;;;;;;;;;;5011946;28;20081;-66
2023/12/26 00:44:22;;;;;;;0.28;0.20;;;;;;;;;;4980293;28;20065;-64
2023/12/26 00:46:49;;;;;;;2.63;0.35;;;;;;;;;;4979505;28;20045;-65
2023/12/26 00:49:16;;;;;;;1.33;0.20;;;;;;;;;;4988526;28;20057;-65
2023/12/26 00:51:42;;;;;;;0.25;0.20;;;;;;;;;;4997229;28;20054;-64
2023/12/26 00:54:09;;;;;;;3.63;0.20;;;;;;;;;;4982177;28;20054;-66
2023/12/26 00:56:38;;;;;;;1.35;0.30;;;;;;;;;;4976504;28;20125;-64
2023/12/26 00:59:04;;;;;;;1.38;0.38;;;;;;;;;;5015017;28;20057;-66
2023/12/26 01:01:31;;;;;;;3.13;0.20;;;;;;;;;;4995528;28;20174;-66
2023/12/26 01:03:58;;;;;;;1.95;0.50;;;;;;;;;;4984068;28;20046;-66
2023/12/26 01:06:25;;;;;;;0.98;0.47;;;;;;;;;;4987310;28;20054;-66
2023/12/26 01:08:52;;;;;;;1.42;0.60;;;;;;;;;;4997237;28;20054;-65
2023/12/26 01:11:18;;;;;;;0.90;0.30;;;;;;;;;;5014060;28;20061;-66
2023/12/26 01:13:47;;;;;;;0.40;0.40;;;;;;;;;;5000109;28;20050;-65
2023/12/26 01:16:16;;;;;;;0.52;0.30;;;;;;;;;;4970124;28;20152;-66
2023/12/26 01:18:43;;;;;;;1.33;0.50;;;;;;;;;;4984734;28;20049;-67
2023/12/26 01:21:10;;;;;;;1.23;0.50;;;;;;;;;;4978198;28;20058;-67
2023/12/26 01:23:37;;;;;;;1.90;0.47;;;;;;;;;;5005276;28;20066;-65
2023/12/26 01:26:04;;;;;;;0.65;0.35;;;;;;;;;;4981966;28;20085;-66
2023/12/26 01:28:31;;;;;;;1.75;0.57;;;;;;;;;;5013106;28;20056;-66
2023/12/26 01:30:59;;;;;;;0.60;0.45;;;;;;;;;;4976649;28;20042;-66
2023/12/26 01:33:26;;;;;;;1.75;0.40;;;;;;;;;;5000823;28;20163;-66
2023/12/26 01:35:53;;;;;;;1.42;0.70;;;;;;;;;;4999448;28;20061;-65
2023/12/26 01:38:22;;;;;;;3.20;0.55;;;;;;;;;;4981231;28;20061;-65
2023/12/26 01:40:49;;;;;;;2.03;0.57;;;;;;;;;;4977674;28;20050;-66
2023/12/26 01:43:17;;;;;;;2.15;0.47;;;;;;;;;;5003422;28;20057;-65
2023/12/26 01:45:44;;;;;;;0.95;0.50;;;;;;;;;;4982266;28;20065;-67
2023/12/26 01:48:16;;;;;;;2.05;0.50;;;;;;;;;;5014401;28;20060;-68
2023/12/26 01:50:43;;;;;;;2.55;0.50;;;;;;;;;;4967027;28;21190;-67
2023/12/26 01:53:10;;;;;;;3.33;0.50;;;;;;;;;;4978339;28;20126;-65
2023/12/26 01:55:37;;;;;;;0.68;0.40;;;;;;;;;;5014586;28;20046;-65
2023/12/26 01:58:04;;;;;;;1.45;0.50;;;;;;;;;;4982032;28;20058;-66
2023/12/26 02:00:31;;;;;;;0.85;0.60;;;;;;;;;;5012557;28;20053;-65
2023/12/26 02:02:58;;;;;;;1.10;0.60;;;;;;;;;;5004576;28;20061;-66
2023/12/26 02:05:27;;;;;;;3.80;0.57;;;;;;;;;;4984934;28;20107;-67
2023/12/26 02:07:54;;;;;;;;;;;;;;;;;;4991168;28;20058;-65
2023/12/26 02:10:23;;;;;;;1.33;0.70;;;;;;;;;;4978900;28;19961;-67
2023/12/26 02:12:50;;;;;;;1.25;0.60;;;;;;;;;;4973044;28;20144;-65
2023/12/26 02:15:18;;;;;;;4.70;0.82;;;;;;;;;;5014316;28;20050;-66
2023/12/26 02:17:45;;;;;;;0.55;0.43;;;;;;;;;;5000672;28;20058;-66
2023/12/26 02:20:12;;;;;;;3.05;0.75;;;;;;;;;;5003551;28;20061;-65
2023/12/26 02:22:41;;;;;;;0.85;0.45;;;;;;;;;;4973357;28;20053;-65
2023/12/26 02:25:09;;;;;;;1.27;0.52;;;;;;;;;;4994366;28;20061;-67
2023/12/26 02:27:37;;;;;;;3.35;1.00;;;;;;;;;;4980226;28;20130;-65
2023/12/26 02:30:06;;;;;;;1.95;0.55;;;;;;;;;;5013681;28;20092;-67
2023/12/26 02:32:35;;;;;;;3.42;0.95;;;;;;;;;;4964398;28;20061;-67
2023/12/26 02:35:03;;;;;;;1.38;0.43;;;;;;;;;;4981407;28;20054;-68
2023/12/26 02:37:30;;;;;;;2.13;0.52;;;;;;;;;;4980868;28;20049;-68
2023/12/26 02:39:57;;;;;;;2.20;0.90;;;;;;;;;;5002370;28;20057;-66
2023/12/26 02:42:29;;;;;;;1.00;0.45;;;;;;;;;;4989840;28;20057;-66
2023/12/26 02:44:56;;;;;;;2.53;0.65;;;;;;;;;;4977916;28;20058;-64
2023/12/26 02:47:23;;;;;;;3.30;0.75;;;;;;;;;;5014560;28;20121;-68
2023/12/26 02:49:50;;;;;;;1.95;0.50;;;;;;;;;;4980370;28;20128;-68
2023/12/26 02:52:17;;;;;;;2.20;0.52;;;;;;;;;;4975757;28;20060;-65
2023/12/26 02:54:44;;;;;;;3.17;0.75;;;;;;;;;;5011771;28;20057;-66
2023/12/26 02:57:11;;;;;;;5.07;0.80;;;;;;;;;;4995781;28;20081;-66
2023/12/26 02:59:39;;;;;;;10.00;1.23;;;;;;;;;;4965615;28;20133;-65
2023/12/26 03:02:06;;;;;;;0.52;0.43;;;;;;;;;;4956658;28;21097;-65
2023/12/26 03:04:33;;;;;;;5.95;1.00;;;;;;;;;;4960636;28;20068;-66
2023/12/26 03:06:59;;;;;;;5.05;0.82;;;;;;;;;;4965359;28;20062;-65
2023/12/26 03:09:26;;;;;;;3.65;0.75;;;;;;;;;;4962020;28;20066;-65
2023/12/26 03:11:53;;;;;;;7.88;0.70;;;;;;;;;;4975487;28;20049;-64
2023/12/26 03:14:19;;;;;;;6.30;0.80;;;;;;;;;;4962395;28;20058;-67
2023/12/26 03:16:48;;;;;;;3.78;0.73;;;;;;;;;;4997901;28;20046;-64
2023/12/26 03:19:15;;;;;;;6.35;1.02;;;;;;;;;;4961286;28;20053;-65
2023/12/26 03:21:42;;;;;;;4.80;0.80;;;;;;;;;;4954239;28;20046;-66
2023/12/26 03:24:09;;;;;;;6.82;0.93;;;;;;;;;;4954938;28;20152;-67
2023/12/26 03:26:35;;;;;;;2.33;0.65;;;;;;;;;;4996268;28;20058;-69
2023/12/26 03:29:02;;;;;;;8.00;0.90;;;;;;;;;;4960702;28;20455;-67
2023/12/26 03:31:29;;;;;;;8.68;1.10;;;;;;;;;;4966465;28;20505;-65
2023/12/26 03:33:57;;;;;;;8.20;0.93;;;;;;;;;;4957861;28;20061;-67
2023/12/26 03:36:24;;;;;;;2.97;0.43;;;;;;;;;;4979304;28;20046;-66
2023/12/26 03:38:51;;;;;;;9.15;0.90;;;;;;;;;;4972329;28;20070;-66
2023/12/26 03:41:17;;;;;;;3.95;0.63;;;;;;;;;;5004213;28;20061;-65
2023/12/26 03:43:47;;;;;;;1.60;0.70;;;;;;;;;;5000938;28;20050;-64
2023/12/26 03:46:14;;;;;;;3.55;0.80;;;;;;;;;;4971731;28;20046;-66
2023/12/26 03:48:41;;;;;;;5.35;0.85;;;;;;;;;;4997796;28;20435;-66
2023/12/26 03:51:09;;;;;;;2.88;0.55;;;;;;;;;;4970467;28;20057;-64
2023/12/26 03:53:39;;;;;;;3.03;0.70;;;;;;;;;;4963005;28;20089;-67
2023/12/26 03:56:06;;;;;;;1.70;0.70;;;;;;;;;;4977298;28;21382;-66
2023/12/26 03:58:33;;;;;;;2.20;0.63;;;;;;;;;;5000499;28;20061;-66
2023/12/26 04:01:00;;;;;;;2.63;0.55;;;;;;;;;;4978457;28;20145;-66
2023/12/26 04:03:26;;;;;;;3.67;0.55;;;;;;;;;;4948665;28;20050;-66
2023/12/26 04:05:53;;;;;;;4.75;0.70;;;;;;;;;;4991639;28;20074;-65
2023/12/26 04:08:21;;;;;;;6.15;0.57;;;;;;;;;;4996665;28;20472;-67
2023/12/26 04:10:48;;;;;;;6.35;1.08;;;;;;;;;;4994346;28;20069;-66
2023/12/26 04:13:15;;;;;;;5.90;0.80;;;;;;;;;;4980787;28;20267;-66
2023/12/26 04:15:42;;;;;;;7.57;0.65;;;;;;;;;;4988130;28;20148;-66
2023/12/26 04:18:09;;;;;;;5.15;0.70;;;;;;;;;;4981031;28;20088;-64
2023/12/26 04:20:35;;;;;;;2.78;0.65;;;;;;;;;;5001996;28;20053;-66
2023/12/26 04:23:02;;;;;;;4.65;0.60;;;;;;;;;;4983118;28;20054;-66
2023/12/26 04:25:29;;;;;;;0.95;0.38;;;;;;;;;;5015001;28;20126;-67
2023/12/26 04:27:56;;;;;;;5.90;0.75;;;;;;;;;;4988509;28;20060;-68
2023/12/26 04:30:23;;;;;;;3.50;0.47;;;;;;;;;;5004437;28;20077;-66
2023/12/26 04:32:49;;;;;;;3.20;0.70;;;;;;;;;;4979159;28;20060;-66
2023/12/26 04:35:16;;;;;;;2.67;0.88;;;;;;;;;;4999819;28;20065;-66
2023/12/26 04:37:45;;;;;;;6.03;0.57;;;;;;;;;;5004594;28;20058;-65
2023/12/26 04:40:12;;;;;;;3.53;0.55;;;;;;;;;;4993456;28;20166;-66
2023/12/26 04:42:41;;;;;;;5.00;0.82;;;;;;;;;;4997483;28;20073;-67
2023/12/26 04:45:09;;;;;;;6.20;0.75;;;;;;;;;;4988120;28;20082;-67
2023/12/26 04:47:35;;;;;;;4.45;0.85;;;;;;;;;;5015245;28;20060;-67
2023/12/26 04:50:03;;;;;;;5.10;0.77;;;;;;;;;;5024791;28;20085;-68
2023/12/26 04:52:29;;;;;;;2.58;0.47;;;;;;;;;;4981225;28;20065;-66
2023/12/26 04:54:56;;;;;;;4.28;1.13;;;;;;;;;;5015769;28;20107;-66
2023/12/26 04:57:23;;;;;;;1.70;0.52;;;;;;;;;;5015962;28;20054;-67
2023/12/26 04:59:51;;;;;;;4.20;0.90;;;;;;;;;;4995043;28;20058;-70
2023/12/26 05:02:18;;;;;;;7.68;1.20;;;;;;;;;;4991487;28;20054;-68
2023/12/26 05:04:45;;;;;;;3.30;0.90;;;;;;;;;;4996767;28;20145;-67
2023/12/26 05:07:11;;;;;;;1.77;0.60;;;;;;;;;;4980103;28;20058;-68
2023/12/26 05:09:38;;;;;;;6.30;0.73;;;;;;;;;;4968787;28;20081;-67
2023/12/26 05:12:06;;;;;;;6.95;0.90;;;;;;;;;;4961765;28;20055;-66
2023/12/26 05:14:32;;;;;;;5.97;0.90;;;;;;;;;;5003356;28;20054;-67
2023/12/26 05:17:01;;;;;;;1.98;0.70;;;;;;;;;;4995432;28;20312;-68
2023/12/26 05:19:28;;;;;;;1.75;0.57;;;;;;;;;;4973132;28;20061;-68
2023/12/26 05:21:55;;;;;;;4.03;0.75;;;;;;;;;;4964822;28;20137;-68
2023/12/26 05:24:21;;;;;;;3.65;0.70;;;;;;;;;;4976645;28;20065;-68
2023/12/26 05:26:48;;;;;;;3.50;0.65;;;;;;;;;;4995664;28;20132;-65
2023/12/26 05:29:16;;;;;;;5.82;0.75;;;;;;;;;;4977511;28;20057;-65
2023/12/26 05:31:42;;;;;;;7.18;0.70;;;;;;;;;;4950039;28;20050;-66
2023/12/26 05:34:11;;;;;;;4.55;0.93;;;;;;;;;;4977767;28;20061;-66
2023/12/26 05:36:37;;;;;;;1.08;0.70;;;;;;;;;;4958220;28;20068;-66
2023/12/26 05:39:04;;;;;;;9.18;0.90;;;;;;;;;;4994785;28;20130;-65
2023/12/26 05:41:30;;;;;;;0.95;0.35;;;;;;;;;;4977406;28;20080;-65
2023/12/26 05:43:57;;;;;;;5.93;0.65;;;;;;;;;;4975000;28;20050;-65
2023/12/26 05:46:29;;;;;;;3.30;0.68;;;;;;;;;;4963361;28;20061;-65
2023/12/26 05:48:56;;;;;;;6.32;0.68;;;;;;;;;;4962557;28;20066;-67
2023/12/26 05:51:25;;;;;;;4.88;0.88;;;;;;;;;;4963597;28;20065;-69
2023/12/26 05:53:52;;;;;;;4.05;0.60;;;;;;;;;;4955947;28;20082;-69
2023/12/26 05:56:19;;;;;;;5.47;1.17;;;;;;;;;;4981026;28;20061;-68
2023/12/26 05:58:46;;;;;;;9.60;0.57;;;;;;;;;;4986087;28;20149;-66
2023/12/26 06:01:13;;;;;;;6.13;0.98;;;;;;;;;;4978810;28;20049;-70
2023/12/26 06:03:40;;;;;;;2.03;0.43;;;;;;;;;;5015389;28;20125;-68
2023/12/26 06:06:11;;;;;;;5.63;0.68;;;;;;;;;;4987527;28;20053;-70
2023/12/26 06:08:40;;;;;;;5.68;0.93;;;;;;;;;;5012295;28;20166;-70
2023/12/26 06:11:08;;;;;;;4.22;0.82;;;;;;;;;;4992403;28;20058;-68
2023/12/26 06:13:34;;;;;;;4.20;0.70;;;;;;;;;;4966648;28;20045;-69
2023/12/26 06:16:01;;;;;;;5.35;1.00;;;;;;;;;;4980446;28;20066;-63
2023/12/26 06:18:28;;;;;;;7.63;0.70;;;;;;;;;;5014390;28;20065;-64
2023/12/26 06:20:55;;;;;;;8.07;1.42;;;;;;;;;;4997108;28;20127;-68
2023/12/26 06:23:21;;;;;;;7.60;1.10;;;;;;;;;;4978324;28;20053;-66
2023/12/26 06:25:50;;;;;;;4.97;0.68;;;;;;;;;;4992632;28;20123;-67
2023/12/26 06:28:16;;;;;;;5.40;0.95;;;;;;;;;;4987059;28;20049;-64
2023/12/26 06:30:43;;;;;;;4.25;0.75;;;;;;;;;;5012099;28;20049;-66
2023/12/26 06:33:10;;;;;;;6.70;0.88;;;;;;;;;;4973824;28;20053;-65
2023/12/26 06:35:38;;;;;;;14.98;2.15;;;;;;;;;;4978970;28;20049;-66
2023/12/26 06:38:11;;;;;;;4.43;0.75;;;;;;;;;;4974639;28;20604;-67
2023/12/26 06:40:39;;;;;;;6.18;0.50;;;;;;;;;;4992784;28;20461;-66
2023/12/26 06:43:07;;;;;;;3.80;0.88;;;;;;;;;;4970567;28;20046;-65
2023/12/26 06:45:33;;;;;;;9.93;0.90;;;;;;;;;;5012413;28;20065;-63
2023/12/26 06:48:00;;;;;;;10.35;0.98;;;;;;;;;;4992940;28;20054;-66
2023/12/26 06:50:27;;;;;;;11.43;0.93;;;;;;;;;;4990387;28;20056;-66
2023/12/26 06:52:54;;;;;;;5.07;0.80;;;;;;;;;;4981125;28;20085;-65
2023/12/26 06:55:20;;;;;;;11.20;0.98;;;;;;;;;;5013300;28;20054;-67
2023/12/26 06:57:47;;;;;;;4.32;1.00;;;;;;;;;;5010997;28;20064;-64
2023/12/26 07:00:18;;;;;;;4.28;0.82;;;;;;;;;;4960406;28;20072;-66
2023/12/26 07:02:44;;;;;;;5.63;0.65;;;;;;;;;;4971909;28;20108;-64
2023/12/26 07:05:11;;;;;;;7.20;0.77;;;;;;;;;;4967739;28;20049;-65
2023/12/26 07:07:38;;;;;;;7.88;1.20;;;;;;;;;;4968384;28;20058;-63
2023/12/26 07:10:05;;;;;;;8.75;0.75;;;;;;;;;;4964743;28;20154;-66
2023/12/26 07:12:32;;;;;;;4.72;0.80;;;;;;;;;;4999268;28;20105;-67
2023/12/26 07:14:59;;;;;;;8.90;1.00;;;;;;;;;;4964195;28;21110;-65
2023/12/26 07:17:27;;;;;;;10.85;0.88;;;;;;;;;;4982141;28;20054;-67
2023/12/26 07:19:54;;;;;;;6.57;1.00;;;;;;;;;;4957512;28;20072;-66
2023/12/26 07:22:21;;;;;;;4.53;0.80;;;;;;;;;;4958934;28;20057;-66
2023/12/26 07:24:47;;;;;;;2.50;0.45;;;;;;;;;;4969928;28;20509;-65
2023/12/26 07:27:14;;;;;;;2.10;0.50;;;;;;;;;;4964948;28;20050;-66
2023/12/26 07:29:41;;;;;;;3.55;0.70;;;;;;;;;;4999553;28;20058;-65
2023/12/26 07:32:08;;;;;;;3.00;0.70;;;;;;;;;;4969476;28;20064;-64
2023/12/26 07:34:36;;;;;;;9.10;0.88;;;;;;;;;;4965240;28;20065;-67
2023/12/26 07:37:03;;;;;;;4.55;0.60;;;;;;;;;;4981167;28;20066;-65
2023/12/26 07:39:30;;;;;;;2.97;0.60;;;;;;;;;;4964466;28;20054;-64
2023/12/26 07:41:56;;;;;;;7.05;1.02;;;;;;;;;;4988832;28;20058;-64
2023/12/26 07:44:23;;;;;;;4.65;0.70;;;;;;;;;;4995897;28;20061;-65
2023/12/26 07:46:50;;;;;;;7.20;0.90;;;;;;;;;;5000179;28;20069;-67
2023/12/26 07:49:17;;;;;;;6.53;0.88;;;;;;;;;;4962489;28;20042;-65
2023/12/26 07:51:46;;;;;;;12.50;1.10;;;;;;;;;;4994637;28;20054;-66
2023/12/26 07:54:13;;;;;;;12.32;1.05;;;;;;;;;;4969656;28;20145;-66
2023/12/26 07:56:40;;;;;;;8.57;0.80;;;;;;;;;;4999068;28;20050;-66
2023/12/26 07:59:07;;;;;;;5.15;1.20;;;;;;;;;;4969681;28;20066;-66
2023/12/26 08:01:33;;;;;;;3.65;0.70;;;;;;;;;;4991987;28;20066;-69
2023/12/26 08:04:00;;;;;;;10.65;1.02;;;;;;;;;;4990139;28;20057;-64
2023/12/26 08:06:27;;;;;;;7.68;0.77;;;;;;;;;;4978513;28;20054;-67
2023/12/26 08:08:56;;;;;;;3.78;0.85;;;;;;;;;;4965873;28;20054;-65
2023/12/26 08:11:24;;;;;;;3.20;0.70;;;;;;;;;;4977912;28;20060;-67
2023/12/26 08:13:51;;;;;;;3.30;0.55;;;;;;;;;;4991541;28;20073;-66
2023/12/26 08:16:18;;;;;;;5.88;0.90;;;;;;;;;;4968434;28;20069;-66
2023/12/26 08:18:45;;;;;;;5.45;0.57;;;;;;;;;;4977764;28;20058;-69
2023/12/26 08:21:12;;;;;;;2.88;0.82;;;;;;;;;;4966914;28;20078;-65
2023/12/26 08:23:38;;;;;;;6.30;0.73;;;;;;;;;;4957615;28;20054;-65
2023/12/26 08:26:08;;;;;;;4.22;0.77;;;;;;;;;;4966976;28;20153;-68
2023/12/26 08:28:35;;;;;;;8.68;1.50;;;;;;;;;;4985316;28;20073;-67
2023/12/26 08:31:02;;;;;;;4.82;0.88;;;;;;;;;;5006499;28;20054;-66
2023/12/26 08:33:29;;;;;;;5.28;0.77;;;;;;;;;;4920540;28;20116;-66
2023/12/26 08:35:56;;;;;;;10.60;0.93;;;;;;;;;;4988194;28;20056;-64
2023/12/26 08:38:23;;;;;;;3.22;0.65;;;;;;;;;;4981435;28;20054;-64
2023/12/26 08:40:50;;;;;;;9.50;0.88;;;;;;;;;;4976744;28;20050;-65
2023/12/26 08:43:20;;;;;;;4.13;0.90;;;;;;;;;;4967548;28;20054;-66
2023/12/26 08:45:47;;;;;;;5.30;0.57;;;;;;;;;;4991261;28;20058;-66
2023/12/26 08:48:14;;;;;;;5.00;0.77;;;;;;;;;;4963209;28;20050;-65
2023/12/26 08:50:41;;;;;;;8.85;0.80;;;;;;;;;;4985596;28;20054;-64
2023/12/26 08:53:08;;;;;;;17.88;7.03;;;;;;;;;;4958562;28;20046;-67
2023/12/26 08:55:35;;;;;;;7.95;1.50;;;;;;;;;;4963825;28;20118;-67
2023/12/26 08:58:02;;;;;;;5.50;1.25;;;;;;;;;;4989019;28;20164;-67
2023/12/26 09:00:30;;;;;;;11.38;1.10;;;;;;;;;;4981430;28;20077;-67
2023/12/26 09:02:57;;;;;;;5.40;0.70;;;;;;;;;;4966128;28;20050;-66
2023/12/26 09:05:24;;;;;;;11.57;1.10;;;;;;;;;;4986910;28;20058;-65
2023/12/26 09:07:50;;;;;;;3.55;0.90;;;;;;;;;;4961777;28;20066;-68
2023/12/26 09:10:20;;;;;;;4.80;0.95;;;;;;;;;;4965548;28;20069;-67
2023/12/26 09:12:47;;;;;;;5.57;1.02;;;;;;;;;;4974281;28;20054;-66
2023/12/26 09:15:14;;;;;;;11.20;1.45;;;;;;;;;;4996588;28;20046;-65
2023/12/26 09:17:45;;;;;;;5.72;0.82;;;;;;;;;;4981182;28;20058;-68
2023/12/26 09:20:12;;;;;;;7.20;0.95;;;;;;;;;;4964292;28;20049;-68
2023/12/26 09:22:39;;;;;;;5.47;1.08;;;;;;;;;;4956525;28;20060;-67
2023/12/26 09:25:09;;;;;;;4.22;1.15;;;;;;;;;;4962373;28;20069;-67
2023/12/26 09:27:39;;;;;;;8.25;1.50;;;;;;;;;;4969541;28;20105;-67
2023/12/26 09:30:09;;;;;;;11.77;2.25;;;;;;;;;;4962463;28;20141;-65
2023/12/26 09:32:35;;;;;;;14.38;2.50;;;;;;;;;;4959107;28;20061;-67
2023/12/26 09:35:07;;;;;;;4.68;0.85;;;;;;;;;;4960913;28;20088;-66
2023/12/26 09:37:38;;;;;;;9.07;1.10;;;;;;;;;;4985302;28;20056;-68
2023/12/26 09:40:12;;;;;;;9.15;1.10;;;;;;;;;;4962312;28;20089;-66
2023/12/26 09:42:38;;;;;;;7.20;1.10;;;;;;;;;;4958814;28;20058;-65
2023/12/26 09:45:13;;;;;;;10.63;0.70;;;;;;;;;;4971096;28;20257;-68
2023/12/26 09:47:42;;;;;;;5.45;0.90;;;;;;;;;;4959199;28;20070;-65
2023/12/26 09:50:13;;;;;;;9.30;1.10;;;;;;;;;;4959970;28;20054;-67
2023/12/26 09:52:44;;;;;;;6.07;1.45;;;;;;;;;;4954190;28;20058;-67
2023/12/26 09:55:12;;;;;;;11.27;1.80;;;;;;;;;;4969287;28;20058;-66
2023/12/26 09:57:42;;;;;;;8.52;0.90;;;;;;;;;;4960850;28;20054;-67
2023/12/26 10:00:10;;;;;;;9.73;1.35;;;;;;;;;;4978429;28;20062;-66
2023/12/26 10:02:39;;;;;;;5.30;0.80;;;;;;;;;;4942916;28;20123;-65
2023/12/26 10:05:12;;;;;;;7.90;1.15;;;;;;;;;;4963024;28;20046;-65
2023/12/26 10:07:41;;;;;;;17.92;1.33;;;;;;;;;;4966442;28;20054;-65
2023/12/26 10:10:11;;;;;;;6.18;1.05;;;;;;;;;;4992050;28;20046;-67
2023/12/26 10:12:37;;;;;;;9.80;1.00;;;;;;;;;;4995955;28;20108;-66
2023/12/26 10:15:06;;;;;;;8.93;1.48;;;;;;;;;;4970560;28;20054;-66
2023/12/26 10:17:34;;;;;;;11.75;1.52;;;;;;;;;;4996332;28;20492;-68
2023/12/26 10:20:03;;;;;;;11.05;1.40;;;;;;;;;;4959533;28;20042;-65
2023/12/26 10:22:32;;;;;;;6.65;1.17;;;;;;;;;;4917640;28;20109;-66
2023/12/26 10:25:01;;;;;;;4.47;0.70;;;;;;;;;;4975881;28;20081;-67
2023/12/26 10:27:28;;;;;;;8.93;0.98;;;;;;;;;;4959184;28;20338;-66
2023/12/26 10:29:55;;;;;;;8.48;1.50;;;;;;;;;;4957536;28;20050;-68
2023/12/26 10:32:24;;;;;;;7.00;0.95;;;;;;;;;;4976359;28;20054;-66
2023/12/26 10:34:52;;;;;;;7.28;0.82;;;;;;;;;;4967755;28;20042;-66
2023/12/26 10:37:21;;;;;;;11.52;2.92;;;;;;;;;;4963130;28;20061;-66
2023/12/26 10:39:48;;;;;;;8.90;2.10;;;;;;;;;;4975010;28;20062;-67
2023/12/26 10:42:17;;;;;;;10.70;1.15;;;;;;;;;;4947271;28;20062;-66
2023/12/26 10:44:59;;;;;;;14.15;1.58;;;;;;;;;;4990733;28;20145;-68
2023/12/26 10:47:28;;;;;;;14.00;2.13;;;;;;;;;;4959409;28;20058;-68
2023/12/26 10:49:59;;;;;;;8.50;1.90;;;;;;;;;;4958113;28;20079;-67
2023/12/26 10:52:27;;;;;;;9.63;1.67;;;;;;;;;;4958790;28;20050;-67
2023/12/26 10:54:56;;;;;;;12.55;1.27;;;;;;;;;;4962285;28;20152;-68
2023/12/26 10:57:25;;;;;;;7.95;1.00;;;;;;;;;;4960058;28;20132;-66
2023/12/26 13:51:52;;;;;;;7.25;1.23;;;;;;;;;;4996252;28;20060;-65
2023/12/26 13:54:21;;;;;;;4.63;0.93;;;;;;;;;;4948912;28;20055;-65
2023/12/26 13:56:48;;;;;;;5.72;1.50;;;;;;;;;;4996558;28;20050;-69
2023/12/26 13:59:14;;;;;;;3.90;1.50;;;;;;;;;;4992054;28;20124;-67
2023/12/26 14:01:42;;;;;;;9.23;0.93;;;;;;;;;;4970179;28;20045;-66
2023/12/26 14:04:08;;;;;;;7.30;1.10;;;;;;;;;;4946170;28;20054;-67
2023/12/26 14:06:35;;;;;;;5.90;0.80;;;;;;;;;;4990461;28;20054;-68
2023/12/26 14:09:04;;;;;;;5.95;1.33;;;;;;;;;;4968158;28;20181;-66
2023/12/26 14:11:31;;;;;;;;;;;;;;;;;;4995307;28;20121;-66
2023/12/26 14:13:58;;;;;;;5.35;0.65;;;;;;;;;;4990721;28;19921;-66
2023/12/26 14:16:26;;;;;;;5.78;0.88;;;;;;;;;;4998869;28;20057;-68
2023/12/26 14:18:53;;;;;;;4.32;0.90;;;;;;;;;;4967274;28;20053;-69
2023/12/26 14:21:20;;;;;;;5.53;0.98;;;;;;;;;;4999590;28;20085;-68
2023/12/26 14:24:01;;;;;;;5.22;0.98;;;;;;;;;;4938235;28;20045;-69
2023/12/26 14:26:34;;;;;;;5.35;1.30;;;;;;;;;;4970583;28;20070;-69
2023/12/26 14:29:31;;;;;;;7.57;0.85;;;;;;;;;;4981631;28;20046;-67
2023/12/26 14:32:01;;;;;;;4.93;0.98;;;;;;;;;;4958192;28;20165;-67
2023/12/26 14:34:36;;;;;;;7.82;1.10;;;;;;;;;;4879083;28;20067;-68
2023/12/26 14:37:06;;;;;;;7.78;1.80;;;;;;;;;;4924977;29;20059;-68
2023/12/26 14:39:38;;;;;;;4.43;0.63;;;;;;;;;;4929467;28;20062;-69
2023/12/26 14:42:10;;;;;;;5.72;1.20;;;;;;;;;;4938192;28;20950;-69
2023/12/26 14:44:39;;;;;;;9.00;1.92;;;;;;;;;;4877114;28;20059;-68
2023/12/26 14:47:09;;;;;;;4.60;1.02;;;;;;;;;;4949420;28;20065;-68
2023/12/26 14:49:41;;;;;;;2.08;0.98;;;;;;;;;;4968277;28;20051;-70
2023/12/26 14:52:11;;;;;;;7.80;1.92;;;;;;;;;;4966484;28;20046;-67
2023/12/26 14:54:38;;;;;;;11.32;1.30;;;;;;;;;;4940842;28;20074;-69
2023/12/26 14:57:07;;;;;;;8.48;1.80;;;;;;;;;;4969109;28;20049;-68
2023/12/26 15:00:11;;;;;;;12.13;2.70;;;;;;;;;;4998604;28;20148;-68
2023/12/26 15:02:44;;;;;;;10.85;2.47;;;;;;;;;;4959949;28;20050;-67
2023/12/26 15:05:14;;;;;;;9.52;2.42;;;;;;;;;;4947028;28;20128;-69
2023/12/26 15:07:41;;;;;;;10.40;1.70;;;;;;;;;;5008006;28;20046;-68
2023/12/26 15:10:08;;;;;;;3.38;0.90;;;;;;;;;;5007798;28;20194;-67
2023/12/26 15:12:36;;;;;;;4.07;0.93;;;;;;;;;;5006302;28;20077;-69
2023/12/26 15:15:06;;;;;;;1.60;0.90;;;;;;;;;;4967231;28;20056;-66
2023/12/26 15:17:33;;;;;;;6.50;1.40;;;;;;;;;;5003189;28;20046;-67
2023/12/26 15:23:32;;;;;;;8.30;1.38;;;;;;;;;;4919178;28;20066;-66
2023/12/26 15:25:58;;;;;;;4.57;1.10;;;;;;;;;;4955269;28;20054;-67
2023/12/26 15:28:27;;;;;;;2.30;0.70;;;;;;;;;;4969604;28;20046;-67
2023/12/26 15:30:57;;;;;;;10.48;1.00;;;;;;;;;;4984021;28;20066;-66
2023/12/26 15:33:23;;;;;;;3.35;0.90;;;;;;;;;;4970651;28;20160;-67
2023/12/26 15:35:55;;;;;;;7.38;1.33;;;;;;;;;;4987740;28;20049;-67
2023/12/26 15:38:24;;;;;;;6.22;0.90;;;;;;;;;;5014250;28;20156;-71
2023/12/26 15:40:51;;;;;;;3.05;0.80;;;;;;;;;;5001095;28;20100;-68
2023/12/26 15:43:18;;;;;;;5.15;1.20;;;;;;;;;;4989081;28;20050;-67
2023/12/26 15:45:47;;;;;;;3.97;0.90;;;;;;;;;;4999932;28;20050;-69
2023/12/26 15:48:14;;;;;;;11.27;1.30;;;;;;;;;;4986836;28;20193;-68
2023/12/26 15:50:41;;;;;;;4.05;1.13;;;;;;;;;;4968955;28;20061;-67
2023/12/26 15:53:08;;;;;;;4.45;0.88;;;;;;;;;;4995777;28;20046;-66
2023/12/26 15:55:35;;;;;;;9.93;1.30;;;;;;;;;;4985213;28;20054;-67
2023/12/26 15:58:02;;;;;;;2.70;0.98;;;;;;;;;;4981393;28;20073;-68
2023/12/26 16:00:29;;;;;;;7.00;1.45;;;;;;;;;;4969117;28;20065;-66
2023/12/26 16:03:01;;;;;;;11.98;1.27;;;;;;;;;;4971364;28;20133;-66
2023/12/26 16:05:28;;;;;;;8.02;1.90;;;;;;;;;;4949676;28;20057;-66
2023/12/26 16:07:55;;;;;;;8.23;1.60;;;;;;;;;;4968934;28;20142;-67
2023/12/26 16:10:23;;;;;;;10.18;1.70;;;;;;;;;;4969396;28;20100;-68
2023/12/26 16:12:50;;;;;;;6.20;1.40;;;;;;;;;;5002922;28;20073;-67
2023/12/26 16:15:17;;;;;;;8.52;1.42;;;;;;;;;;4980895;28;20054;-67
2023/12/26 16:17:43;;;;;;;9.73;2.00;;;;;;;;;;4968545;28;20376;-70
2023/12/26 16:20:12;;;;;;;15.15;3.13;;;;;;;;;;4970535;28;20062;-68
2023/12/26 16:22:38;;;;;;;9.63;2.22;;;;;;;;;;4999999;28;20065;-68
2023/12/26 16:25:05;;;;;;;8.90;2.05;;;;;;;;;;4971785;28;20109;-69
2023/12/26 16:27:33;;;;;;;5.57;1.65;;;;;;;;;;4983019;28;20077;-69
2023/12/26 16:30:02;;;;;;;11.95;2.13;;;;;;;;;;4996151;28;20145;-68
2023/12/26 16:32:32;;;;;;;7.38;2.03;;;;;;;;;;5001972;28;20050;-69
2023/12/26 16:34:59;;;;;;;6.50;2.00;;;;;;;;;;4979412;28;20050;-70
2023/12/26 16:37:27;;;;;;;8.93;2.10;;;;;;;;;;5007514;28;20065;-69
2023/12/26 16:39:54;;;;;;;7.18;2.03;;;;;;;;;;4981223;28;20124;-70
2023/12/26 16:42:42;;;;;;;14.45;2.08;;;;;;;;;;5001757;28;20058;-67
2023/12/26 16:45:10;;;;;;;11.27;2.28;;;;;;;;;;4968666;28;20054;-68
2023/12/26 16:47:42;;;;;;;14.70;3.72;;;;;;;;;;4967419;28;20081;-67
2023/12/26 16:50:11;;;;;;;11.32;2.70;;;;;;;;;;4970108;28;20062;-67
2023/12/26 16:52:40;;;;;;;11.07;2.53;;;;;;;;;;4970902;28;20046;-67
2023/12/26 16:55:10;;;;;;;12.18;2.72;;;;;;;;;;4964721;28;20050;-66
2023/12/26 16:57:49;;;;;;;7.90;2.65;;;;;;;;;;4984875;28;20137;-67
2023/12/26 17:00:18;;;;;;;9.73;2.22;;;;;;;;;;4985496;28;20055;-66
2023/12/26 17:02:45;;;;;;;10.95;2.90;;;;;;;;;;4968654;28;20670;-67
2023/12/26 17:05:12;;;;;;;19.85;5.43;;;;;;;;;;5003825;28;20049;-67
2023/12/26 17:07:41;;;;;;;19.08;6.25;;;;;;;;;;4990455;28;20066;-69
2023/12/26 17:10:11;;;;;;;19.27;6.07;;;;;;;;;;4966674;28;20050;-66
2023/12/26 17:12:38;;;;;;;25.33;7.85;;;;;;;;;;4992069;28;20124;-66
2023/12/26 17:15:11;;;;;;;17.33;5.57;;;;;;;;;;4985633;28;20262;-67
2023/12/26 17:17:38;;;;;;;12.48;3.80;;;;;;;;;;4984697;28;20054;-67
2023/12/26 17:20:08;;;;;;;10.02;3.78;;;;;;;;;;4964337;28;20141;-67
2023/12/26 17:22:35;;;;;;;17.67;4.80;;;;;;;;;;5003538;28;20065;-66
2023/12/26 17:25:04;;;;;;;10.90;4.13;;;;;;;;;;4970686;28;20046;-66
2023/12/26 17:27:31;;;;;;;12.82;3.22;;;;;;;;;;5013474;28;20068;-67
2023/12/26 17:29:57;;;;;;;8.93;2.50;;;;;;;;;;4998040;28;20046;-68
2023/12/26 17:32:24;;;;;;;11.73;2.33;;;;;;;;;;4985830;28;20490;-68
2023/12/26 17:34:55;;;;;;;10.13;2.90;;;;;;;;;;4978606;28;20109;-69
2023/12/26 17:37:22;;;;;;;17.35;3.28;;;;;;;;;;5005094;28;20061;-69
2023/12/26 17:39:49;;;;;;;14.75;2.92;;;;;;;;;;4987533;28;20077;-70